Latest Weather Observations for Merimbula

IDN60801

Issued at 1:05 am EST Sunday 24 August 2014 (issued every 30 minutes, with the page automatically refreshed every 10 minutes)

About weather observations | Map of weather stations | Latest weather observations for NSW | Other Formats
Station Details ID: 069147 Name: MERIMBULA AIRPORT AWS Lat: -36.91 Lon: 149.90 Height: 1.5 m
Data from the previous 72 hours. | See also: Recent months at Merimbula
Date/Time
EST
Temp
°C
App
Temp
°C
Dew
Point
Rel
Hum
%
Delta-T
°C
Wind Press
QNH
hPa
Press
MSL
hPa
Rain
since 9 am
mm
Dir
 
Spd
km/h
Gust
km/h
Spd
kts
Gust
kts
24/01:00am 8.2 7.6 7.4 95 0.4 SW 0 0 0 0 1029.5 - 0.0
24/12:47am 8.4 7.8 7.6 95 0.4 WSW 0 0 0 0 1029.5 - 0.0
24/12:30am 8.9 8.5 8.1 95 0.4 W 0 0 0 0 1029.7 - 0.0
24/12:00am 9.5 9.2 8.7 95 0.4 NW 0 0 0 0 1029.7 1029.7 0.0
 
Date/Time
EST
Temp
°C
App
Temp
°C
Dew
Point
Rel
Hum
%
Delta-T
°C
Wind Press
QNH
hPa
Press
MSL
hPa
Rain
since 9 am
mm
Dir
 
Spd
km/h
Gust
km/h
Spd
kts
Gust
kts
23/11:30pm 9.6 9.3 8.8 95 0.4 CALM 0 0 0 0 1030.1 - 0.0
23/11:18pm 9.2 8.8 8.4 95 0.4 CALM 0 0 0 0 1030.1 - 0.0
23/11:00pm 9.2 8.8 8.3 94 0.4 CALM 0 0 0 0 1030.2 - 0.0
23/10:30pm 9.7 9.4 8.6 93 0.5 CALM 0 0 0 0 1030.2 - 0.0
23/10:00pm 10.5 10.4 9.4 93 0.5 CALM 0 0 0 0 1030.3 - 0.0
23/09:30pm 10.8 10.7 9.6 92 0.6 CALM 0 0 0 0 1030.4 - 0.0
23/09:00pm 11.6 11.0 10.5 93 0.6 NNW 4 11 2 6 1030.4 1030.4 0.0
23/08:30pm 10.7 10.6 9.5 92 0.6 CALM 0 9 0 5 1030.5 - 0.0
23/08:00pm 11.4 11.5 10.0 91 0.7 CALM 0 0 0 0 1030.5 - 0.0
23/07:30pm 11.8 11.9 10.2 90 0.8 CALM 0 0 0 0 1030.4 - 0.0
23/07:00pm 12.2 12.3 10.1 87 1.1 CALM 0 0 0 0 1030.3 - 0.0
23/06:30pm 13.1 13.3 10.5 84 1.4 CALM 0 0 0 0 1030.1 - 0.0
23/06:00pm 14.2 13.3 11.4 83 1.5 N 7 13 4 7 1029.9 1029.9 0.0
23/05:30pm 14.5 13.7 11.6 83 1.6 N 7 15 4 8 1029.7 - 0.0
23/05:00pm 15.0 13.2 12.0 82 1.6 NNE 13 20 7 11 1029.4 - 0.0
23/04:30pm 15.4 13.5 11.8 79 1.9 NNE 13 22 7 12 1029.2 - 0.0
23/04:00pm 16.2 14.2 11.6 74 2.5 NNE 13 20 7 11 1029.2 - 0.0
23/03:30pm 16.8 14.5 11.9 73 2.7 NE 15 22 8 12 1029.2 - 0.0
23/03:00pm 16.7 14.0 11.8 73 2.7 ENE 17 24 9 13 1029.3 1029.3 0.0
23/02:30pm 16.7 14.4 11.8 73 2.7 ENE 15 20 8 11 1029.3 - 0.0
23/02:00pm 17.0 14.4 11.9 72 2.8 ENE 17 22 9 12 1029.6 - 0.0
23/01:30pm 17.7 16.0 12.6 72 2.8 E 13 19 7 10 1029.8 - 0.0
23/01:00pm 17.0 14.4 12.1 73 2.7 E 17 24 9 13 1030.1 - 0.0
23/12:30pm 16.7 14.4 11.8 73 2.7 ENE 15 20 8 11 1030.5 - 0.0
23/12:00pm 15.8 13.5 11.8 77 2.2 E 15 20 8 11 1030.9 1030.9 0.0
23/11:30am 16.0 15.4 12.2 78 2.1 ENE 7 13 4 7 1031.3 - 0.0
23/11:00am 15.8 14.2 11.4 75 2.4 ESE 11 15 6 8 1031.8 - 0.0
23/10:30am 15.6 16.1 11.6 77 2.2 CALM 0 0 0 0 1032.1 - 0.0
23/10:00am 14.7 14.6 10.7 77 2.1 WNW 2 9 1 5 1032.2 - 0.0
23/09:30am 13.8 14.0 10.6 81 1.7 CALM 0 0 0 0 1032.2 - 0.0
23/09:00am 12.1 12.1 9.8 86 1.2 W 0 0 0 0 1032.3 1032.3 4.4
23/08:30am 10.9 10.9 9.8 93 0.6 CALM 0 0 0 0 1032.4 - 4.4
23/08:00am 10.3 10.3 9.8 97 0.2 WNW 0 0 0 0 1032.2 - 4.4
23/07:30am 8.4 7.9 8.0 97 0.2 CALM 0 0 0 0 1032.1 - 4.4
23/07:00am 7.0 5.0 6.4 96 0.3 SW 6 11 3 6 1031.8 - 4.4
23/06:30am 7.1 6.3 6.5 96 0.3 CALM 0 0 0 0 1031.4 - 4.4
23/06:26am 7.4 6.7 6.8 96 0.3 CALM 0 0 0 0 1031.3 - 4.4
23/06:10am 7.1 6.3 6.5 96 0.3 CALM 0 0 0 0 1031.2 - 4.4
23/06:00am 7.5 6.8 6.9 96 0.3 WSW 0 0 0 0 1031.2 1031.2 4.4
23/05:30am 7.5 6.8 6.9 96 0.3 CALM 0 0 0 0 1031.1 - 4.4
23/05:00am 7.9 7.3 7.3 96 0.3 CALM 0 0 0 0 1030.8 - 4.4
23/04:50am 7.7 7.0 7.1 96 0.3 CALM 0 0 0 0 1030.8 - 4.4
23/04:30am 7.8 7.2 7.2 96 0.3 CALM 0 0 0 0 1030.8 - 4.4
23/04:12am 7.8 7.2 7.2 96 0.3 CALM 0 0 0 0 1030.8 - 4.4
23/04:00am 7.5 6.8 6.8 95 0.3 CALM 0 0 0 0 1030.7 - 4.4
23/03:57am 7.7 7.0 7.0 95 0.3 CALM 0 0 0 0 1030.7 - 4.4
23/03:30am 8.4 7.8 7.6 95 0.4 CALM 0 0 0 0 1030.8 - 4.4
23/03:00am 8.7 8.3 8.1 96 0.3 CALM 0 0 0 0 1031.0 1031.0 4.4
23/02:30am 9.1 8.8 8.5 96 0.3 CALM 0 0 0 0 1031.1 - 4.2
23/02:00am 9.0 8.6 8.2 95 0.4 CALM 0 0 0 0 1031.3 - 4.2
23/01:30am 9.1 8.7 8.3 95 0.4 CALM 0 0 0 0 1031.6 - 4.2
23/01:26am 9.2 8.8 8.4 95 0.4 CALM 0 0 0 0 1031.6 - 4.2
23/01:18am 9.5 9.3 8.9 96 0.3 CALM 0 0 0 0 1031.6 - 4.2
23/01:02am 9.8 9.6 9.2 96 0.3 CALM 0 0 0 0 1031.9 - 4.2
23/01:00am 9.8 9.6 9.2 96 0.3 CALM 0 0 0 0 1032.0 - 4.2
23/12:30am 9.4 9.1 8.8 96 0.3 CALM 0 0 0 0 1031.8 - 4.2
23/12:16am 9.4 9.1 8.6 95 0.4 CALM 0 0 0 0 1031.8 - 4.2
23/12:00am 9.1 8.7 8.3 95 0.4 CALM 0 0 0 0 1031.9 1031.9 4.2
 
Date/Time
EST
Temp
°C
App
Temp
°C
Dew
Point
Rel
Hum
%
Delta-T
°C
Wind Press
QNH
hPa
Press
MSL
hPa
Rain
since 9 am
mm
Dir
 
Spd
km/h
Gust
km/h
Spd
kts
Gust
kts
22/11:30pm 9.9 9.7 9.1 95 0.4 CALM 0 0 0 0 1031.9 - 4.2
22/11:00pm 9.9 9.6 8.8 93 0.5 CALM 0 0 0 0 1032.0 - 4.2
22/10:56pm 10.1 9.9 9.2 94 0.4 CALM 0 0 0 0 1032.1 - 4.2
22/10:30pm 11.0 11.1 10.1 94 0.5 CALM 0 7 0 4 1032.4 - 4.2
22/10:00pm 11.3 10.3 10.4 94 0.5 W 6 9 3 5 1032.4 - 4.2
22/09:52pm 11.6 10.5 10.7 94 0.5 W 7 11 4 6 1032.5 - 4.2
22/09:40pm 11.6 10.5 10.7 94 0.5 NW 7 11 4 6 1032.6 - 4.0
22/09:30pm 11.5 11.3 10.6 94 0.5 NNW 2 9 1 5 1032.6 - 4.0
22/09:00pm 11.7 10.6 10.6 93 0.6 WNW 7 9 4 5 1032.5 1032.5 4.0
22/08:58pm 11.8 10.9 10.7 93 0.6 WNW 6 9 3 5 1032.5 - 4.0
22/08:53pm 11.8 10.7 10.7 93 0.6 WNW 7 13 4 7 1032.4 - 4.0
22/08:32pm 11.5 10.3 10.4 93 0.6 N 7 11 4 6 1032.5 - 3.6
22/08:30pm 11.5 10.3 10.2 92 0.7 N 7 15 4 8 1032.5 - 3.4
22/08:21pm 11.5 11.2 10.1 91 0.7 SSE 2 15 1 8 1032.6 - 1.2
22/08:00pm 11.6 9.5 9.7 88 1.0 NW 11 13 6 7 1032.2 - 0.0
22/07:30pm 11.8 11.9 10.0 89 0.9 CALM 0 0 0 0 1032.1 - 0.0
22/07:00pm 11.8 10.1 9.9 88 1.0 NW 9 13 5 7 1032.0 - 0.0
22/06:30pm 12.1 10.4 9.8 86 1.2 NW 9 13 5 7 1031.7 - 0.0
22/06:00pm 13.4 12.3 9.8 79 1.8 N 6 11 3 6 1031.5 1031.5 0.0
22/05:30pm 13.5 13.5 9.7 78 1.9 CALM 0 0 0 0 1031.3 - 0.0
22/05:00pm 14.5 12.7 9.5 72 2.6 ENE 9 13 5 7 1031.1 - 0.0
22/04:30pm 14.8 13.0 9.4 70 2.8 ENE 9 17 5 9 1031.1 - 0.0
22/04:00pm 16.1 13.9 9.5 65 3.4 E 11 17 6 9 1030.9 - 0.0
22/03:30pm 16.5 14.4 9.9 65 3.5 E 11 19 6 10 1030.8 - 0.0
22/03:00pm 16.9 14.7 10.7 67 3.3 E 13 20 7 11 1031.0 1031.0 0.0
22/02:30pm 17.0 14.8 10.8 67 3.3 E 13 19 7 10 1031.2 - 0.0
22/02:00pm 16.8 14.8 10.2 65 3.5 E 11 17 6 9 1031.3 - 0.0
22/01:30pm 17.2 15.3 10.6 65 3.5 E 11 17 6 9 1031.5 - 0.0
22/01:00pm 17.1 15.6 10.5 65 3.5 E 9 13 5 7 1031.7 - 0.0
22/12:30pm 16.6 15.1 9.1 61 3.9 E 7 13 4 7 1032.0 - 0.0
22/12:00pm 16.8 15.1 10.0 64 3.5 E 9 15 5 8 1032.5 1032.5 0.0
22/11:30am 16.0 14.1 10.5 70 2.9 E 11 17 6 9 1032.9 - 0.0
22/11:00am 17.3 16.7 12.2 72 2.8 E 7 13 4 7 1033.3 - 0.0
22/10:30am 15.8 14.5 9.9 68 3.1 N 7 11 4 6 1033.4 - 0.0
22/10:00am 14.4 13.4 10.2 76 2.2 NW 6 9 3 5 1033.5 - 0.0
22/09:30am 12.9 11.3 10.1 83 1.4 NW 9 11 5 6 1033.5 - 0.0
22/09:00am 12.6 11.1 10.7 88 1.0 NW 9 13 5 7 1033.5 1033.5 4.2
22/08:30am 11.7 10.7 10.9 95 0.4 WNW 7 11 4 6 1033.5 - 4.2
22/08:00am 10.3 10.3 9.7 96 0.3 CALM 0 0 0 0 1033.4 - 4.2
22/07:30am 9.2 8.5 8.6 96 0.3 SW 2 7 1 4 1033.1 - 4.2
22/07:29am 9.0 7.9 8.4 96 0.3 SW 4 7 2 4 1033.1 - 4.2
22/07:12am 8.4 6.6 7.8 96 0.3 WSW 7 9 4 5 1032.8 - 4.2
22/07:00am 8.4 6.8 7.8 96 0.3 WSW 6 7 3 4 1032.7 - 4.2
22/06:42am 8.7 7.1 8.1 96 0.3 SW 6 7 3 4 1032.5 - 4.2
22/06:31am 8.6 7.0 8.0 96 0.3 SW 6 7 3 4 1032.4 - 4.2
22/06:30am 8.6 7.0 8.0 96 0.3 SW 6 7 3 4 1032.4 - 4.2
22/06:00am 9.3 7.7 8.7 96 0.3 W 7 11 4 6 1032.2 1032.2 4.2
22/05:30am 9.7 7.8 9.1 96 0.3 WNW 9 13 5 7 1031.9 - 4.2
22/05:15am 9.9 8.4 9.3 96 0.3 W 7 9 4 5 1032.0 - 4.2
22/05:00am 9.9 9.8 9.3 96 0.3 CALM 0 9 0 5 1032.0 - 4.0
22/04:59am 9.8 9.6 9.2 96 0.3 CALM 0 6 0 3 1032.0 - 4.0
22/04:40am 9.6 8.1 9.0 96 0.3 SW 7 9 4 5 1032.0 - 4.0
22/04:30am 9.4 7.8 8.8 96 0.3 SSW 7 11 4 6 1031.9 - 3.8
22/04:20am 9.4 7.8 8.8 96 0.3 SSW 7 11 4 6 1031.8 - 3.6
22/04:19am 9.4 7.8 8.8 96 0.3 SSW 7 11 4 6 1031.8 - 3.6
22/04:00am 10.0 7.8 9.4 96 0.3 WNW 11 15 6 8 1031.7 - 3.6
22/03:52am 10.0 8.6 9.4 96 0.3 NW 7 11 4 6 1031.8 - 2.6
22/03:47am 10.0 9.1 9.4 96 0.3 NW 4 11 2 6 1031.9 - 2.2
22/03:46am 9.9 9.4 9.3 96 0.3 NW 2 11 1 6 1031.9 - 2.2
22/03:30am 9.6 8.2 9.0 96 0.3 WNW 6 9 3 5 1031.7 - 2.2
22/03:12am 9.2 6.8 8.6 96 0.3 WNW 11 13 6 7 1031.6 - 2.0
22/03:00am 9.3 7.7 8.7 96 0.3 W 7 11 4 6 1031.6 1031.6 2.0
22/02:39am 9.5 7.9 8.9 96 0.3 S 7 15 4 8 1031.7 - 2.0
22/02:30am 9.3 7.7 8.7 96 0.3 SW 7 15 4 8 1031.9 - 2.0
22/02:10am 8.8 7.2 8.0 95 0.4 W 6 9 3 5 1031.9 - 2.0
22/02:00am 9.1 7.4 8.5 96 0.3 W 7 9 4 5 1032.0 - 2.0
22/01:30am 9.3 7.7 8.7 96 0.3 SW 7 13 4 7 1032.2 - 2.0
22/01:23am 9.5 8.1 8.9 96 0.3 WSW 6 9 3 5 1032.2 - 2.0
22/01:00am 9.3 8.6 8.7 96 0.3 WSW 2 7 1 4 1032.3 - 1.6
22/12:51am 9.3 7.7 8.7 96 0.3 SW 7 9 4 5 1032.3 - 1.4
22/12:30am 8.7 8.2 7.9 95 0.4 CALM 0 0 0 0 1032.3 - 1.4
22/12:00am 9.2 7.5 8.4 95 0.4 SW 7 13 4 7 1032.5 1032.5 1.4
 
Date/Time
EST
Temp
°C
App
Temp
°C
Dew
Point
Rel
Hum
%
Delta-T
°C
Wind Press
QNH
hPa
Press
MSL
hPa
Rain
since 9 am
mm
Dir
 
Spd
km/h
Gust
km/h
Spd
kts
Gust
kts
21/11:49pm 9.3 9.0 8.5 95 0.4 CALM 0 0 0 0 1032.4 - 1.4
21/11:30pm 9.8 8.3 9.2 96 0.3 WSW 7 9 4 5 1032.5 - 1.4
21/11:23pm 9.6 8.0 8.8 95 0.4 WNW 7 9 4 5 1032.5 - 1.0
21/11:21pm 9.5 7.9 8.7 95 0.4 WNW 7 9 4 5 1032.5 - 1.0
21/11:00pm 9.1 7.5 8.2 94 0.4 WSW 6 7 3 4 1032.5 - 1.0
21/10:58pm 9.2 7.7 8.3 94 0.4 WSW 6 7 3 4 1032.5 - 1.0
21/10:30pm 9.8 8.2 8.9 94 0.4 W 7 11 4 6 1032.5 - 1.0
21/10:01pm 10.4 8.3 9.6 95 0.4 WNW 11 13 6 7 1032.5 - 1.0
21/10:00pm 10.4 8.3 9.6 95 0.4 WNW 11 13 6 7 1032.5 - 1.0
21/09:48pm 9.9 9.7 9.0 94 0.4 CALM 0 0 0 0 1032.5 - 1.0
21/09:30pm 10.1 9.9 9.0 93 0.5 CALM 0 7 0 4 1032.4 - 1.0
21/09:00pm 10.9 9.6 10.0 94 0.5 WNW 7 11 4 6 1032.4 1032.4 1.0
21/08:39pm 11.1 9.9 10.2 94 0.5 W 7 9 4 5 1032.2 - 1.0
21/08:30pm 11.1 10.1 10.2 94 0.5 SW 6 13 3 7 1032.1 - 1.0
21/08:09pm 10.9 10.5 9.8 93 0.6 S 2 11 1 6 1032.2 - 0.4
21/08:00pm 10.5 10.3 9.1 91 0.7 CALM 0 0 0 0 1032.0 - 0.0
21/07:30pm 10.7 9.7 9.0 89 0.8 SW 4 11 2 6 1031.8 - 0.0
21/07:00pm 11.5 11.1 9.6 88 1.0 W 2 7 1 4 1031.5 - 0.0
21/06:30pm 12.2 10.6 10.1 87 1.1 SW 9 11 5 6 1031.2 - 0.0
21/06:00pm 12.0 10.8 9.4 84 1.3 S 6 15 3 8 1031.0 1031.0 0.0
21/05:30pm 13.0 11.6 9.6 80 1.7 S 7 11 4 6 1030.6 - 0.0
21/05:00pm 14.1 12.4 9.9 76 2.2 SSE 9 11 5 6 1030.2 - 0.0
21/04:30pm 15.1 13.0 9.9 71 2.7 SSE 11 17 6 9 1030.1 - 0.0
21/04:00pm 15.5 13.5 10.1 70 2.8 SE 11 17 6 9 1029.9 - 0.0
21/03:30pm 15.4 12.5 9.5 68 3.0 SE 15 19 8 10 1029.7 - 0.0
21/03:00pm 16.5 14.8 9.9 65 3.4 ESE 9 15 5 8 1029.7 1029.7 0.0
21/02:30pm 16.8 15.3 10.4 66 3.4 ESE 9 15 5 8 1029.8 - 0.0
21/02:00pm 16.3 15.6 9.9 66 3.4 ESE 4 11 2 6 1029.9 - 0.0
21/01:30pm 15.7 14.1 8.7 63 3.6 ESE 7 13 4 7 1029.9 - 0.0
21/01:00pm 15.7 15.6 9.4 66 3.3 CALM 0 0 0 0 1030.2 - 0.0
21/12:30pm 14.8 13.5 9.2 69 2.9 E 6 9 3 5 1030.4 - 0.0
21/12:06pm 14.1 13.3 9.7 75 2.3 ENE 4 9 2 5 1030.7 - 0.0
21/12:00pm 13.9 12.8 10.1 78 2.0 SE 6 9 3 5 1030.8 1030.8 0.0
21/11:46am 14.2 12.2 10.0 76 2.2 ESE 11 17 6 9 1031.0 - 0.0
21/11:30am 15.1 13.7 9.0 67 3.1 SE 6 11 3 6 1031.0 - 0.0
21/11:00am 14.8 14.0 8.3 65 3.3 SW 2 9 1 5 1031.2 - 0.0
21/10:30am 14.4 12.2 7.7 64 3.3 W 9 13 5 7 1031.3 - 0.0
21/10:00am 13.3 10.9 7.1 66 3.0 W 9 13 5 7 1031.4 - 0.0
21/09:30am 12.5 10.6 7.6 72 2.4 W 7 11 4 6 1031.3 - 0.0
21/09:00am 11.3 8.6 7.2 76 1.9 W 11 17 6 9 1031.2 1031.2 0.0
21/08:30am 10.5 9.1 7.2 80 1.6 SW 4 11 2 6 1031.3 - 0.0
21/08:00am 10.3 7.7 6.3 76 1.9 WNW 9 13 5 7 1030.9 - 0.0
21/07:30am 8.9 6.0 6.3 84 1.2 WNW 11 13 6 7 1030.6 - 0.0
21/07:00am 7.9 5.6 5.5 85 1.1 SW 7 9 4 5 1030.4 - 0.0
21/06:30am 7.6 4.8 5.2 85 1.1 SSW 9 11 5 6 1030.1 - 0.0
21/06:00am 7.3 4.5 5.1 86 1.0 SSW 9 11 5 6 1029.8 1029.8 0.0
21/05:30am 6.9 4.7 5.4 90 0.7 WSW 6 7 3 4 1029.4 - 0.0
21/05:00am 6.6 3.8 5.1 90 0.7 SW 9 11 5 6 1029.2 - 0.0
21/04:30am 5.9 3.4 4.5 91 0.6 SW 7 11 4 6 1029.2 - 0.0
21/04:00am 5.4 2.7 3.9 90 0.6 WSW 7 9 4 5 1029.2 - 0.0
21/03:30am 5.9 3.4 4.9 93 0.4 WSW 7 11 4 6 1028.9 - 0.0
21/03:00am 5.3 3.7 4.3 93 0.4 W 2 7 1 4 1028.8 1028.8 0.0
21/02:30am 5.3 2.7 4.1 92 0.5 SW 7 11 4 6 1028.8 - 0.0
21/02:00am 5.4 3.0 4.2 92 0.5 SW 6 11 3 6 1028.8 - 0.0
21/01:30am 5.6 3.0 4.1 90 0.6 WSW 7 7 4 4 1028.9 - 0.0

Other Formats:

Comma delimited format used in spreadsheet applications
http://www.bom.gov.au/fwo/IDN60801/IDN60801.95929.axf

JavaScript Object Notation format (JSON) in row-major order
http://www.bom.gov.au/fwo/IDN60801/IDN60801.95929.json